createdAt,value
2023-05-22T00:03:53.301Z,1009.92
2023-05-22T00:13:53.557Z,1009.98
2023-05-22T00:23:53.828Z,1010.03
2023-05-22T00:33:54.127Z,1010.10
2023-05-22T00:43:54.095Z,1010.07
2023-05-22T00:53:54.325Z,1010.24
2023-05-22T01:03:54.623Z,1010.48
2023-05-22T01:13:54.641Z,1010.58
2023-05-22T01:23:54.898Z,1010.64
2023-05-22T01:33:55.419Z,1010.73
2023-05-22T01:43:55.366Z,1010.80
2023-05-22T01:53:55.632Z,1010.89
2023-05-22T02:03:55.668Z,1011.01
2023-05-22T02:13:55.868Z,1010.93
2023-05-22T02:23:56.187Z,1010.92
2023-05-22T02:33:56.424Z,1010.82
2023-05-22T02:43:56.718Z,1010.81
2023-05-22T02:53:56.861Z,1010.95
2023-05-22T03:03:57.091Z,1011.02
2023-05-22T03:13:57.116Z,1011.03
2023-05-22T03:23:57.160Z,1011.03
2023-05-22T03:33:57.373Z,1011.00
2023-05-22T03:43:57.539Z,1011.05
2023-05-22T03:53:57.698Z,1011.03
2023-05-22T04:03:57.879Z,1011.02
2023-05-22T04:13:58.040Z,1011.06
2023-05-22T04:23:58.200Z,1011.11
2023-05-22T04:33:58.386Z,1011.18
2023-05-22T04:43:58.543Z,1011.31
2023-05-22T04:53:58.699Z,1011.44
2023-05-22T05:03:58.886Z,1011.43
2023-05-22T05:13:59.087Z,1011.48
2023-05-22T05:23:59.263Z,1011.54
2023-05-22T05:33:59.433Z,1011.49
2023-05-22T05:43:59.608Z,1011.55
2023-05-22T05:54:00.036Z,1011.48
2023-05-22T06:04:00.096Z,1011.48
2023-05-22T06:14:00.263Z,1011.51
2023-05-22T06:24:00.456Z,1011.64
2023-05-22T06:34:00.753Z,1011.56
2023-05-22T06:44:00.716Z,1011.50
2023-05-22T06:54:00.880Z,1011.48
2023-05-22T07:04:01.038Z,1011.46
2023-05-22T07:14:01.237Z,1011.49
2023-05-22T07:24:01.424Z,1011.50
2023-05-22T07:34:01.573Z,1011.56
2023-05-22T07:44:01.754Z,1011.52
2023-05-22T07:54:01.933Z,1011.45
2023-05-22T08:04:02.312Z,1011.36
2023-05-22T08:14:02.324Z,1011.36
2023-05-22T08:24:02.507Z,1011.28
2023-05-22T08:34:03.045Z,1011.22
2023-05-22T08:44:02.811Z,1011.17
2023-05-22T08:54:02.979Z,1011.10
2023-05-22T09:04:03.238Z,1011.01
2023-05-22T09:14:03.417Z,1010.97
2023-05-22T09:24:03.601Z,1010.94
2023-05-22T09:34:03.773Z,1010.86
2023-05-22T09:44:03.962Z,1010.79
2023-05-22T09:54:04.114Z,1010.75
2023-05-22T10:04:04.320Z,1010.59
2023-05-22T10:14:04.498Z,1010.52
2023-05-22T10:24:04.686Z,1010.45
2023-05-22T10:34:04.882Z,1010.40
2023-05-22T10:44:05.122Z,1010.33
2023-05-22T10:54:05.312Z,1010.23
2023-05-22T11:04:05.504Z,1010.13
2023-05-22T11:14:05.696Z,1009.99
2023-05-22T11:24:05.872Z,1009.94
2023-05-22T11:34:06.096Z,1009.85
2023-05-22T11:44:06.310Z,1009.83
2023-05-22T11:54:06.539Z,1009.74
2023-05-22T12:04:06.789Z,1009.70
2023-05-22T12:14:06.800Z,1009.61
2023-05-22T12:24:06.970Z,1009.50
2023-05-22T12:34:07.150Z,1009.46
2023-05-22T12:44:07.320Z,1009.43
2023-05-22T12:54:07.500Z,1009.38
2023-05-22T13:04:07.713Z,1009.35
2023-05-22T13:14:07.890Z,1009.26
2023-05-22T13:24:08.095Z,1009.24
2023-05-22T13:34:08.263Z,1009.14
2023-05-22T13:44:08.429Z,1009.07
2023-05-22T13:54:08.676Z,1009.11
2023-05-22T14:04:08.787Z,1009.05
2023-05-22T14:14:08.932Z,1008.97
2023-05-22T14:24:09.108Z,1008.90
2023-05-22T14:34:09.277Z,1008.73
2023-05-22T14:44:09.461Z,1008.76
2023-05-22T14:54:10.260Z,1008.67
2023-05-22T15:04:09.829Z,1008.71
2023-05-22T15:14:09.998Z,1008.60
2023-05-22T15:24:10.181Z,1008.60
2023-05-22T15:34:10.347Z,1008.51
2023-05-22T15:44:10.512Z,1008.48
2023-05-22T15:54:10.692Z,1008.58
2023-05-22T16:04:10.876Z,1008.68
2023-05-22T16:14:11.041Z,1008.79
2023-05-22T16:24:11.224Z,1008.82
2023-05-22T16:34:11.397Z,1008.78
2023-05-22T16:44:11.554Z,1008.80
2023-05-22T16:54:11.759Z,1008.86
2023-05-22T17:04:11.993Z,1008.94
2023-05-22T17:14:12.122Z,1008.94
2023-05-22T17:24:14.567Z,1009.06
2023-05-22T17:34:12.730Z,1009.11
2023-05-22T17:44:12.909Z,1009.08
2023-05-22T17:54:13.064Z,1009.05
2023-05-22T18:04:13.330Z,1009.09
2023-05-22T18:14:13.382Z,1009.08
2023-05-22T18:24:13.647Z,1009.18
2023-05-22T18:34:13.903Z,1009.41
2023-05-22T18:44:13.971Z,1009.57
2023-05-22T18:54:14.261Z,1009.70
2023-05-22T19:04:14.486Z,1009.90
2023-05-22T19:14:14.652Z,1010.09
2023-05-22T19:24:14.806Z,1010.21
2023-05-22T19:34:15.035Z,1010.33
2023-05-22T19:44:15.455Z,1010.30
2023-05-22T19:54:15.332Z,1010.29
2023-05-22T20:04:15.524Z,1010.41
2023-05-22T20:14:15.416Z,1010.51
2023-05-22T20:24:15.842Z,1010.55
2023-05-22T20:34:15.929Z,1010.68
2023-05-22T20:44:15.971Z,1010.85
2023-05-22T20:54:16.049Z,1010.87
2023-05-22T21:04:16.322Z,1010.95
2023-05-22T21:14:16.609Z,1011.11
2023-05-22T21:24:16.460Z,1011.16
2023-05-22T21:34:16.794Z,1011.15
2023-05-22T21:44:16.802Z,1011.23
2023-05-22T21:54:17.043Z,1011.29
2023-05-22T22:04:17.212Z,1011.39
2023-05-22T22:14:17.561Z,1011.36
2023-05-22T22:24:17.610Z,1011.36
2023-05-22T22:34:17.669Z,1011.37
2023-05-22T22:44:17.893Z,1011.48
2023-05-22T22:54:18.148Z,1011.64
2023-05-22T23:04:18.496Z,1011.72
2023-05-22T23:14:18.408Z,1011.86
2023-05-22T23:24:18.574Z,1011.91
2023-05-22T23:34:18.839Z,1011.92
2023-05-22T23:44:19.136Z,1011.88
2023-05-22T23:54:19.186Z,1011.88
